KLUK

Cincinnati Municipal Lunken Field Airport

Cincinnati, Ohio, USA
METAR KLUK 181053Z 00000KT 5SM BR CLR 22/22 A3009 RMK AO2 SLP182 T02220222
Observed Flight Rules
Jun-18 @ 10:53 UTC (12 minutes ago) Marginal Visual Flight Rules
Visibility Clouds Conditions
5 miles
  • Clear skies
  • Mist
Temperatures Readings
Current 22°C / 72°F
Dewpoint 22°C / 72°F
Humidity 100%
Altimeter 30.09" Hg
Pressure 1018.2 hPa
Elevation 155
METAR KLUK 181053Z 00000KT 5SM BR CLR 22/22 A3009 RMK AO2 SLP182 T02220222
Observed Flight Rules
Jun-18 @ 10:53 UTC
(12 minutes ago)
MVFR
Clouds
  • Clear skies
Conditions
  • Mist
Temperature Dewpoint
22°C / 72°F 22°C / 72°F
Humidity Altimeter Pressure
100% 30.09" Hg 1018.2 hPa